Time;durP1;ratioP1;P1;durP2;ratioP2;P2;SDS_P1;SDS_P2;PMS_P1;PMS_P2;Temp;Humidity;BMP_temperature;BMP_pressure;BME280_temperature;BME280_humidity;BME280_pressure;Samples;Min_cycle;Max_cycle;Signal;HPM_P1;HPM_P2
2022/11/13 00:02:14;;;;;;;19.47;12.27;;;;;;;10.53;81.53;98570.75;5067830;28;20279;-76
2022/11/13 00:05:00;;;;;;;18.07;11.63;;;;;;;10.51;81.58;98575.09;5067565;28;20193;-78
2022/11/13 00:07:45;;;;;;;21.23;12.80;;;;;;;10.54;81.65;98572.44;5068485;28;20185;-78
2022/11/13 00:10:30;;;;;;;20.50;12.73;;;;;;;10.52;81.21;98563.84;5067230;28;20193;-77
2022/11/13 00:13:15;;;;;;;19.17;12.40;;;;;;;10.41;81.61;98560.63;5068365;28;20200;-77
2022/11/13 00:16:07;;;;;;;18.30;12.90;;;;;;;10.47;81.52;98556.19;5067814;28;20688;-77
2022/11/13 00:18:52;;;;;;;18.70;12.63;;;;;;;10.44;81.56;98555.41;5066796;28;20731;-77
2022/11/13 00:21:38;;;;;;;19.07;12.80;;;;;;;10.37;82.19;98564.16;5067834;28;20303;-76
2022/11/13 00:24:24;;;;;;;24.20;14.17;;;;;;;10.29;81.93;98566.94;5067483;28;20184;-75
2022/11/13 00:27:09;;;;;;;19.07;13.60;;;;;;;10.21;82.59;98555.00;5066830;28;20189;-76
2022/11/13 00:29:55;;;;;;;24.17;14.07;;;;;;;10.22;83.20;98567.91;5067888;28;20585;-77
2022/11/13 00:32:40;;;;;;;21.07;14.87;;;;;;;10.29;82.55;98568.66;5067044;28;20293;-79
2022/11/13 00:35:25;;;;;;;20.93;14.43;;;;;;;10.23;83.34;98561.00;5067126;28;20591;-76
2022/11/13 00:38:10;;;;;;;18.60;12.97;;;;;;;10.17;83.71;98559.41;5067766;28;20229;-77
2022/11/13 00:40:56;;;;;;;21.03;13.03;;;;;;;10.08;84.25;98556.97;5066725;28;20286;-74
2022/11/13 00:43:42;;;;;;;19.60;13.57;;;;;;;10.13;84.52;98554.31;5066992;28;20200;-74
2022/11/13 00:46:27;;;;;;;21.27;13.60;;;;;;;10.19;83.82;98551.59;5067323;28;20199;-74
2022/11/13 00:49:13;;;;;;;19.47;13.07;;;;;;;10.20;83.80;98551.56;5066043;28;20197;-74
2022/11/13 00:51:59;;;;;;;22.10;13.33;;;;;;;10.23;83.87;98558.44;5067464;28;20299;-74
2022/11/13 00:54:44;;;;;;;21.27;14.20;;;;;;;10.24;83.54;98560.16;5067269;28;20220;-73
2022/11/13 00:57:29;;;;;;;20.03;13.33;;;;;;;10.16;83.53;98556.84;5066503;28;20276;-74
2022/11/13 01:00:15;;;;;;;18.37;13.57;;;;;;;10.12;83.81;98557.81;5067263;28;20207;-74
2022/11/13 01:03:00;;;;;;;21.67;13.17;;;;;;;10.19;83.52;98555.06;5066632;28;20185;-74
2022/11/13 01:05:46;;;;;;;20.97;14.27;;;;;;;10.13;83.61;98543.97;5066152;28;20185;-73
2022/11/13 01:08:31;;;;;;;17.73;12.73;;;;;;;10.32;83.25;98553.06;5066739;28;20872;-73
2022/11/13 01:11:20;;;;;;;17.20;12.17;;;;;;;10.29;82.73;98550.53;5066440;28;20201;-74
2022/11/13 01:14:05;;;;;;;19.17;12.70;;;;;;;10.11;82.75;98550.91;5066908;28;20268;-74
2022/11/13 01:16:50;;;;;;;19.03;12.70;;;;;;;9.98;83.92;98542.50;5067143;28;20196;-74
2022/11/13 01:19:36;;;;;;;20.63;12.73;;;;;;;9.81;84.68;98542.81;5066027;28;20231;-75
2022/11/13 01:22:21;;;;;;;17.63;12.27;;;;;;;9.85;84.67;98549.63;5066890;28;20201;-73
2022/11/13 01:25:06;;;;;;;18.70;12.37;;;;;;;9.89;84.94;98544.41;5066664;28;20702;-74
2022/11/13 01:27:52;;;;;;;19.80;13.43;;;;;;;9.95;84.27;98539.13;5065978;28;20219;-74
2022/11/13 01:30:38;;;;;;;18.43;12.10;;;;;;;9.87;84.49;98541.00;5066904;28;20196;-75
2022/11/13 01:33:23;;;;;;;18.53;12.73;;;;;;;9.99;84.16;98544.22;5066165;28;20634;-76
2022/11/13 01:36:15;;;;;;;18.13;12.83;;;;;;;9.97;84.46;98543.38;5066249;28;20188;-76
2022/11/13 01:39:00;;;;;;;19.37;12.90;;;;;;;9.81;84.46;98541.94;5066947;28;20220;-75
2022/11/13 01:41:46;;;;;;;19.80;13.17;;;;;;;9.88;85.22;98532.34;5066264;28;20192;-74
2022/11/13 01:44:51;;;;;;;21.30;12.57;;;;;;;9.94;84.98;98540.84;5066388;28;20693;-74
2022/11/13 01:47:36;;;;;;;20.07;13.67;;;;;;;9.83;84.89;98535.88;5066907;28;20204;-74
2022/11/13 01:50:22;;;;;;;20.67;13.10;;;;;;;9.69;85.77;98534.41;5066002;28;20201;-75
2022/11/13 01:53:08;;;;;;;18.43;12.33;;;;;;;9.66;86.33;98535.34;5066413;28;20189;-74
2022/11/13 01:55:53;;;;;;;17.37;12.43;;;;;;;9.74;86.13;98541.25;5066698;28;20291;-74
2022/11/13 01:58:40;;;;;;;18.67;12.63;;;;;;;9.63;86.67;98542.28;5064249;28;20366;-76
2022/11/13 02:01:26;;;;;;;15.87;10.83;;;;;;;9.65;86.68;98536.22;5066483;28;20186;-76
2022/11/13 02:04:12;;;;;;;19.80;10.97;;;;;;;9.65;86.67;98546.56;5066805;28;20200;-77
2022/11/13 02:07:07;;;;;;;18.07;11.63;;;;;;;9.52;87.15;98550.25;5065657;28;20181;-75
2022/11/13 02:09:54;;;;;;;17.37;10.53;;;;;;;9.36;87.33;98541.03;5065301;28;20212;-77
2022/11/13 02:12:45;;;;;;;17.40;10.57;;;;;;;9.26;88.28;98541.22;5066468;28;20193;-77
2022/11/13 02:15:33;;;;;;;16.20;9.57;;;;;;;9.15;88.53;98530.22;5065594;28;20284;-77
2022/11/13 02:18:21;;;;;;;15.10;10.17;;;;;;;9.33;88.77;98550.59;5067721;28;20225;-76
2022/11/13 02:21:09;;;;;;;16.67;10.03;;;;;;;9.48;87.17;98543.41;5069795;28;20253;-76
2022/11/13 02:24:20;;;;;;;15.47;10.00;;;;;;;9.64;86.50;98544.84;5069544;28;20254;-76
2022/11/13 02:27:09;;;;;;;15.63;10.53;;;;;;;9.68;85.91;98536.19;5069918;28;20187;-75
2022/11/13 02:29:54;;;;;;;17.70;10.00;;;;;;;9.63;85.86;98539.72;5069701;28;20201;-78
2022/11/13 02:32:47;;;;;;;24.07;12.97;;;;;;;9.67;86.07;98549.13;5069330;28;20256;-76
2022/11/13 02:35:36;;;;;;;21.93;11.60;;;;;;;9.64;85.37;98547.44;5070098;28;20280;-77
2022/11/13 02:38:22;;;;;;;20.13;11.63;;;;;;;9.49;85.36;98542.56;5068942;28;20653;-76
2022/11/13 02:41:07;;;;;;;24.47;12.83;;;;;;;9.50;86.30;98546.81;5069131;28;20745;-78
2022/11/13 02:43:52;;;;;;;19.17;11.30;;;;;;;9.04;85.07;98460.63;5069850;28;20246;-77
2022/11/13 02:46:37;;;;;;;20.37;11.37;;;;;;;9.57;85.10;98553.59;5068933;28;20193;-76
2022/11/13 02:49:23;;;;;;;18.43;10.60;;;;;;;9.61;84.92;98547.50;5069044;28;20177;-76
2022/11/13 02:52:08;;;;;;;21.00;11.00;;;;;;;9.53;84.74;98551.97;5069546;28;20267;-77
2022/11/13 02:54:53;;;;;;;17.97;11.03;;;;;;;9.61;84.55;98547.50;5068609;28;20591;-74
2022/11/13 02:57:38;;;;;;;14.07;8.93;;;;;;;9.43;84.58;98547.84;5069040;28;20197;-74
2022/11/13 03:00:23;;;;;;;12.30;8.97;;;;;;;9.43;84.66;98549.56;5069040;28;20221;-74
2022/11/13 03:03:08;;;;;;;12.97;8.40;;;;;;;9.19;85.37;98540.47;5068349;28;20185;-74
2022/11/13 03:05:54;;;;;;;14.27;9.07;;;;;;;9.29;85.80;98551.53;5069219;28;20197;-74
2022/11/13 03:08:39;;;;;;;19.40;9.97;;;;;;;9.37;84.89;98549.66;5068502;28;20765;-75
2022/11/13 03:11:25;;;;;;;14.20;9.70;;;;;;;9.25;85.45;98550.72;5068492;28;20185;-74
2022/11/13 03:14:12;;;;;;;14.77;9.30;;;;;;;9.30;85.40;98554.06;5069222;28;20493;-78
2022/11/13 03:16:57;;;;;;;11.80;9.20;;;;;;;9.31;84.87;98547.19;5068017;28;20887;-77
2022/11/13 03:19:42;;;;;;;16.90;10.73;;;;;;;8.88;85.90;98534.09;5068475;28;20232;-77
2022/11/13 03:22:29;;;;;;;18.40;11.30;;;;;;;8.83;86.45;98556.53;5069073;28;20199;-77
2022/11/13 03:25:14;;;;;;;16.53;10.63;;;;;;;8.68;87.53;98557.63;5067730;28;20201;-77
2022/11/13 03:28:00;;;;;;;20.23;11.17;;;;;;;8.98;86.31;98549.41;5068591;28;20242;-77
2022/11/13 03:30:46;;;;;;;19.10;11.10;;;;;;;8.75;87.25;98536.00;5067787;28;20398;-74
2022/11/13 03:33:32;;;;;;;20.03;12.03;;;;;;;9.00;85.50;98537.31;5067445;28;20781;-75
2022/11/13 03:36:17;;;;;;;22.70;12.10;;;;;;;9.18;84.70;98537.91;5068946;28;20619;-74
2022/11/13 03:39:03;;;;;;;17.90;12.50;;;;;;;9.18;84.81;98553.41;5068098;28;20235;-74
2022/11/13 03:41:48;;;;;;;18.50;11.37;;;;;;;9.32;84.31;98541.13;5067999;28;20243;-74
2022/11/13 03:44:33;;;;;;;24.43;14.90;;;;;;;9.45;83.50;98548.66;5068902;28;20740;-74
2022/11/13 03:47:18;;;;;;;21.07;13.30;;;;;;;9.37;83.50;98553.09;5067958;28;20278;-74
2022/11/13 03:50:04;;;;;;;23.77;14.67;;;;;;;9.44;84.00;98559.00;5049258;28;20693;-74
2022/11/13 03:52:49;;;;;;;21.10;14.20;;;;;;;9.35;83.91;98552.28;5048528;28;20561;-75
2022/11/13 03:55:35;;;;;;;25.37;14.43;;;;;;;9.37;83.96;98550.53;5047569;28;20196;-75
2022/11/13 03:58:20;;;;;;;19.53;13.57;;;;;;;9.23;84.81;98554.22;5047972;28;20190;-75
2022/11/13 04:01:05;;;;;;;18.90;12.03;;;;;;;9.11;85.01;98551.81;5048096;28;20312;-77
2022/11/13 04:03:51;;;;;;;19.47;12.87;;;;;;;8.99;85.32;98548.53;5047261;28;20750;-76
2022/11/13 04:06:36;;;;;;;19.63;13.27;;;;;;;8.79;85.44;98503.22;5048037;28;20200;-75
2022/11/13 04:09:22;;;;;;;22.80;18.10;;;;;;;9.06;85.87;98544.13;5047588;28;20203;-78
2022/11/13 04:12:07;;;;;;;20.20;12.87;;;;;;;9.00;86.18;98546.81;5047680;28;20738;-75
2022/11/13 04:14:52;;;;;;;23.63;15.47;;;;;;;8.79;86.40;98541.97;5048095;28;20274;-75
2022/11/13 04:17:37;;;;;;;22.97;14.00;;;;;;;8.52;87.85;98534.59;5047381;28;20735;-74
2022/11/13 04:20:23;;;;;;;19.57;13.77;;;;;;;8.56;87.78;98534.56;5047234;28;20233;-75
2022/11/13 04:23:11;;;;;;;18.67;12.90;;;;;;;8.60;88.14;98543.97;5047853;28;20739;-74
2022/11/13 04:25:57;;;;;;;19.40;14.30;;;;;;;8.65;87.78;98537.00;5046928;28;20271;-75
2022/11/13 04:28:42;;;;;;;20.47;15.23;;;;;;;8.63;88.49;98543.06;5047402;28;20185;-77
2022/11/13 04:31:28;;;;;;;21.37;16.07;;;;;;;8.63;88.66;98532.75;5047575;28;20200;-75
2022/11/13 04:34:13;;;;;;;22.07;15.37;;;;;;;8.60;88.68;98533.63;5046590;28;20194;-78
2022/11/13 04:36:58;;;;;;;19.07;13.53;;;;;;;8.67;88.92;98537.84;5046674;28;20724;-77
2022/11/13 04:39:44;;;;;;;19.37;13.93;;;;;;;8.74;88.46;98533.41;5047349;28;20299;-78
2022/11/13 04:42:47;;;;;;;22.27;13.60;;;;;;;8.75;88.21;98532.56;5046142;28;20308;-75
2022/11/13 04:45:34;;;;;;;21.60;13.53;;;;;;;8.75;87.49;98542.88;5027606;28;20212;-75
2022/11/13 04:48:19;;;;;;;18.53;12.60;;;;;;;8.63;87.06;98522.41;5039806;28;20664;-77
2022/11/13 04:51:05;;;;;;;16.27;11.63;;;;;;;8.79;86.75;98537.66;5026888;28;20197;-74
2022/11/13 04:53:50;;;;;;;17.37;11.60;;;;;;;8.96;86.41;98550.34;5027466;28;20695;-74
2022/11/13 04:56:35;;;;;;;20.27;13.07;;;;;;;9.04;85.53;98548.47;5026640;28;20195;-75
2022/11/13 04:59:20;;;;;;;16.03;11.90;;;;;;;9.11;84.74;98547.50;5026801;28;20368;-75
2022/11/13 05:02:05;;;;;;;16.80;11.10;;;;;;;9.10;84.19;98539.78;5038149;28;20236;-74
2022/11/13 05:04:51;;;;;;;18.93;11.73;;;;;;;9.04;83.76;98540.72;5046050;28;20599;-74
2022/11/13 05:07:36;;;;;;;19.23;13.10;;;;;;;8.99;84.10;98542.50;5046725;28;20274;-74
2022/11/13 05:10:22;;;;;;;20.03;12.50;;;;;;;9.17;83.61;98552.56;5046696;28;20208;-74
2022/11/13 05:13:07;;;;;;;18.00;11.93;;;;;;;9.28;83.62;98548.06;5046340;28;20580;-79
2022/11/13 05:16:02;;;;;;;19.20;12.27;;;;;;;9.27;83.08;98542.94;5047145;28;20196;-79
2022/11/13 05:18:47;;;;;;;20.20;13.63;;;;;;;9.19;83.84;98534.47;5046660;28;20213;-76
2022/11/13 05:21:35;;;;;;;21.47;13.33;;;;;;;9.19;84.48;98535.28;5046341;28;20194;-73
2022/11/13 05:24:20;;;;;;;19.67;13.50;;;;;;;9.13;85.20;98542.31;5047147;28;20717;-74
2022/11/13 05:27:06;;;;;;;17.40;13.37;;;;;;;9.15;85.42;98541.38;5046425;28;20189;-75
2022/11/13 05:29:51;;;;;;;21.13;13.57;;;;;;;9.11;85.50;98549.25;5046303;28;20711;-74
2022/11/13 05:32:36;;;;;;;20.70;13.30;;;;;;;9.15;86.00;98549.16;5046813;28;20838;-74
2022/11/13 05:35:21;;;;;;;19.30;13.23;;;;;;;9.23;86.05;98547.31;5045988;28;20743;-75
2022/11/13 05:38:06;;;;;;;20.07;13.30;;;;;;;9.31;85.58;98537.69;5046521;28;20193;-75
2022/11/13 05:40:51;;;;;;;19.37;12.73;;;;;;;9.41;85.33;98562.50;5046719;28;20214;-75
2022/11/13 05:43:38;;;;;;;17.97;12.60;;;;;;;9.39;84.84;98551.34;5045677;28;20212;-75
2022/11/13 05:46:26;;;;;;;17.03;12.63;;;;;;;9.36;84.89;98559.13;5046711;28;20203;-74
2022/11/13 05:49:11;;;;;;;20.80;12.70;;;;;;;9.40;84.87;98550.44;5046587;28;20735;-75
2022/11/13 05:51:56;;;;;;;23.43;14.33;;;;;;;9.52;84.71;98564.94;5043864;28;20205;-74
2022/11/13 05:54:41;;;;;;;22.30;13.50;;;;;;;9.59;85.07;98556.16;5049317;28;20231;-75
2022/11/13 05:57:28;;;;;;;21.03;12.63;;;;;;;9.60;84.48;98566.47;5050109;28;20219;-75
2022/11/13 06:00:14;;;;;;;18.50;12.83;;;;;;;9.59;84.48;98559.59;5049737;28;20222;-75
2022/11/13 06:03:00;;;;;;;18.93;12.20;;;;;;;9.67;84.72;98570.66;5052762;28;20193;-75
2022/11/13 06:05:45;;;;;;;18.83;12.07;;;;;;;9.72;84.75;98566.28;5058363;28;20335;-74
2022/11/13 06:08:30;;;;;;;17.03;12.13;;;;;;;9.74;84.92;98569.69;5049943;28;20189;-74
2022/11/13 06:11:18;;;;;;;17.77;12.70;;;;;;;9.77;84.43;98568.75;5050724;28;20206;-74
2022/11/13 06:14:03;;;;;;;19.13;10.63;;;;;;;9.71;84.65;98553.34;5049223;28;20212;-75
2022/11/13 06:16:49;;;;;;;15.93;11.10;;;;;;;9.83;84.71;98563.47;5049972;28;20291;-74
2022/11/13 06:19:34;;;;;;;15.50;11.47;;;;;;;9.74;84.66;98576.59;5050071;28;20252;-75
2022/11/13 06:22:19;;;;;;;19.23;11.13;;;;;;;9.83;84.89;98566.06;5049262;28;20200;-74
2022/11/13 06:25:05;;;;;;;15.97;10.83;;;;;;;9.96;84.05;98575.31;5038967;28;20249;-74
2022/11/13 06:27:52;;;;;;;20.27;11.23;;;;;;;9.89;83.62;98565.13;5038541;28;20248;-75
2022/11/13 06:30:37;;;;;;;17.13;11.30;;;;;;;9.80;83.30;98560.97;5049429;28;20232;-73
2022/11/13 06:33:22;;;;;;;15.30;11.03;;;;;;;9.90;83.52;98574.56;5049729;28;20284;-74
2022/11/13 06:36:13;;;;;;;20.97;10.63;;;;;;;9.91;83.33;98571.97;5029227;28;20178;-74
2022/11/13 06:38:58;;;;;;;18.03;11.90;;;;;;;9.96;83.38;98577.03;5029168;28;20190;-76
2022/11/13 06:41:43;;;;;;;19.37;10.67;;;;;;;9.98;83.11;98575.28;5029816;28;20778;-74
2022/11/13 06:44:29;;;;;;;17.07;10.83;;;;;;;10.00;83.06;98578.69;5029120;28;20194;-74
2022/11/13 06:47:14;;;;;;;19.93;12.70;;;;;;;10.10;82.61;98575.06;5029404;28;21049;-75
2022/11/13 06:49:59;;;;;;;17.80;11.27;;;;;;;10.02;83.03;98571.75;5029268;28;20198;-77
2022/11/13 06:52:44;;;;;;;17.57;11.90;;;;;;;10.11;82.99;98571.63;5034104;28;20189;-76
2022/11/13 06:55:30;;;;;;;19.30;10.90;;;;;;;10.18;82.83;98575.81;5048252;28;20677;-74
2022/11/13 06:58:16;;;;;;;17.47;12.70;;;;;;;10.17;82.69;98567.16;5048780;28;20205;-76
2022/11/13 07:01:19;;;;;;;16.93;12.00;;;;;;;10.18;82.16;98570.63;5047723;28;20260;-76
2022/11/13 07:04:05;;;;;;;20.00;11.67;;;;;;;10.32;82.53;98568.59;5029093;28;20206;-76
2022/11/13 07:06:51;;;;;;;18.70;11.87;;;;;;;9.94;82.06;98491.69;5060806;28;20197;-76
2022/11/13 07:09:36;;;;;;;17.13;11.80;;;;;;;10.50;82.08;98568.22;5028343;28;20321;-76
2022/11/13 07:12:21;;;;;;;16.73;10.83;;;;;;;10.71;81.67;98585.91;5029377;28;20186;-78
2022/11/13 07:15:07;;;;;;;20.10;9.30;;;;;;;10.78;80.87;98576.25;5028262;28;20358;-78
2022/11/13 07:17:52;;;;;;;18.20;9.40;;;;;;;10.76;80.39;98572.84;5073115;28;20673;-75
2022/11/13 07:20:37;;;;;;;12.77;9.07;;;;;;;10.75;80.33;98578.91;5048606;28;20235;-74
2022/11/13 07:23:23;;;;;;;17.27;8.90;;;;;;;10.62;81.21;98575.72;5046713;28;20201;-74
2022/11/13 07:26:10;;;;;;;17.50;8.77;;;;;;;10.65;81.27;98578.28;5047328;28;20275;-74
2022/11/13 07:29:00;;;;;;;16.50;9.03;;;;;;;10.70;81.77;98579.00;5048466;28;20676;-79
2022/11/13 07:31:45;;;;;;;12.70;9.03;;;;;;;10.69;81.44;98576.44;5047617;28;20255;-74
2022/11/13 07:34:30;;;;;;;15.63;9.33;;;;;;;10.77;81.03;98575.41;5047810;28;20264;-73
2022/11/13 07:37:16;;;;;;;14.27;9.60;;;;;;;10.78;80.32;98563.31;5047025;28;20229;-73
2022/11/13 07:40:02;;;;;;;14.90;9.57;;;;;;;10.88;80.81;98562.22;5048911;28;20217;-75
2022/11/13 07:43:01;;;;;;;14.40;9.87;;;;;;;10.82;81.01;98563.19;5049515;28;20197;-75
2022/11/13 07:45:53;;;;;;;19.33;12.53;;;;;;;10.84;81.38;98556.22;5047774;28;20183;-75
2022/11/13 07:48:38;;;;;;;16.80;11.50;;;;;;;10.88;80.73;98559.63;5047577;28;20190;-76
2022/11/13 07:51:23;;;;;;;15.90;10.17;;;;;;;10.84;81.19;98561.41;5048162;28;20711;-75
2022/11/13 07:54:09;;;;;;;16.77;10.13;;;;;;;10.89;81.01;98548.34;5047181;28;20243;-74
2022/11/13 07:56:54;;;;;;;13.70;9.77;;;;;;;10.88;81.90;98546.66;5044507;28;20208;-74
2022/11/13 07:59:40;;;;;;;15.07;11.00;;;;;;;10.90;81.78;98553.50;5031901;28;20322;-75
2022/11/13 08:02:25;;;;;;;18.47;10.90;;;;;;;11.03;81.54;98562.69;5036382;28;20202;-74
2022/11/13 08:05:11;;;;;;;20.10;10.40;;;;;;;11.15;81.45;98561.56;5032732;28;20917;-74
2022/11/13 08:07:56;;;;;;;20.47;10.53;;;;;;;11.31;80.79;98558.56;5047706;28;20197;-75
2022/11/13 08:10:42;;;;;;;15.53;11.00;;;;;;;11.50;79.95;98558.94;5059166;28;20190;-74
2022/11/13 08:13:27;;;;;;;19.83;11.80;;;;;;;11.55;80.01;98556.25;5046219;28;20211;-74
2022/11/13 08:16:13;;;;;;;20.83;11.93;;;;;;;11.48;79.49;98550.34;5046659;28;20201;-74
2022/11/13 08:18:58;;;;;;;16.40;10.27;;;;;;;11.56;79.33;98563.16;5047060;28;20188;-75
2022/11/13 08:21:44;;;;;;;15.83;11.03;;;;;;;11.64;79.55;98558.63;5060681;28;20248;-75
2022/11/13 08:24:30;;;;;;;18.53;10.87;;;;;;;11.79;78.62;98561.69;5046674;28;20198;-76
2022/11/13 08:27:15;;;;;;;18.63;13.80;;;;;;;11.61;79.09;98550.91;5046841;28;20768;-75
2022/11/13 08:30:00;;;;;;;14.30;10.57;;;;;;;11.75;78.17;98549.69;5047202;28;20201;-75
2022/11/13 08:32:49;;;;;;;15.57;11.00;;;;;;;11.89;77.40;98563.16;5046223;28;20243;-74
2022/11/13 08:35:34;;;;;;;18.17;11.17;;;;;;;11.93;77.82;98556.97;5045515;28;20199;-75
2022/11/13 08:38:20;;;;;;;17.73;10.43;;;;;;;11.50;77.83;98532.19;5026977;28;20187;-74
2022/11/13 08:41:06;;;;;;;18.60;12.10;;;;;;;11.83;78.30;98550.34;5028043;28;20737;-73
2022/11/13 08:43:54;;;;;;;22.87;12.30;;;;;;;11.97;77.76;98544.78;5027170;28;20206;-75
2022/11/13 08:46:39;;;;;;;18.77;10.90;;;;;;;12.02;77.61;98553.28;5058493;28;20696;-75
2022/11/13 08:49:25;;;;;;;15.77;10.77;;;;;;;12.00;77.46;98558.53;5026449;28;20234;-74
2022/11/13 08:52:10;;;;;;;16.57;9.93;;;;;;;11.88;76.67;98545.03;5027333;28;20194;-75
2022/11/13 08:54:56;;;;;;;12.57;9.93;;;;;;;11.99;76.40;98555.97;5026699;28;20190;-75
2022/11/13 08:57:42;;;;;;;15.30;9.77;;;;;;;12.00;76.43;98548.16;5037623;28;20205;-75
2022/11/13 09:00:29;;;;;;;23.67;11.57;;;;;;;12.09;76.21;98553.09;5047377;28;20221;-76
2022/11/13 09:03:14;;;;;;;19.70;10.00;;;;;;;12.16;75.38;98541.63;5045953;28;20194;-76
2022/11/13 09:05:59;;;;;;;17.60;10.43;;;;;;;12.26;75.44;98535.28;5046661;28;20185;-75
2022/11/13 09:08:45;;;;;;;18.17;11.30;;;;;;;12.51;76.06;98538.00;5046558;28;20205;-76
2022/11/13 09:11:30;;;;;;;15.40;9.80;;;;;;;12.47;73.51;98535.56;5046156;28;20184;-76
2022/11/13 09:14:15;;;;;;;21.47;14.10;;;;;;;12.59;73.53;98538.63;5046671;28;20633;-76
2022/11/13 09:17:00;;;;;;;22.77;14.90;;;;;;;12.68;73.48;98525.38;5045875;28;20182;-75
2022/11/13 09:19:46;;;;;;;21.13;14.53;;;;;;;12.75;72.58;98515.63;5077667;28;20232;-76
2022/11/13 09:22:32;;;;;;;18.37;11.03;;;;;;;12.91;72.16;98528.13;5046492;28;20197;-75
2022/11/13 09:25:18;;;;;;;19.17;11.23;;;;;;;12.91;72.00;98528.13;5044645;28;20186;-75
2022/11/13 09:28:04;;;;;;;17.20;11.93;;;;;;;12.98;71.54;98505.38;5047187;28;20675;-75
2022/11/13 09:30:50;;;;;;;18.27;9.93;;;;;;;13.20;70.67;98523.75;5082507;28;20198;-74
2022/11/13 09:33:35;;;;;;;16.93;10.47;;;;;;;13.35;70.36;98512.88;5048620;28;20236;-74
2022/11/13 09:36:21;;;;;;;12.57;9.40;;;;;;;13.40;69.61;98508.34;5049633;28;20208;-74
2022/11/13 09:39:06;;;;;;;14.90;9.93;;;;;;;13.57;68.96;98500.81;5049602;28;20201;-75
2022/11/13 09:42:30;;;;;;;15.87;9.70;;;;;;;13.69;67.57;98493.44;5062079;28;20258;-75
2022/11/13 09:45:16;;;;;;;11.57;8.03;;;;;;;13.66;67.27;98500.53;5049585;28;20231;-74
2022/11/13 09:48:21;;;;;;;12.60;8.63;;;;;;;13.62;66.76;98496.31;5050063;28;20203;-76
2022/11/13 09:51:14;;;;;;;15.60;8.90;;;;;;;13.62;67.06;98491.13;5049062;28;20293;-75
2022/11/13 09:54:04;;;;;;;13.53;8.80;;;;;;;13.33;67.17;98473.91;5049156;28;20201;-75
2022/11/13 09:57:08;;;;;;;12.70;8.97;;;;;;;13.48;67.76;98482.91;5050543;28;20749;-74
2022/11/13 09:59:58;;;;;;;12.80;8.80;;;;;;;13.63;67.18;98479.78;5048853;28;20900;-75
2022/11/13 10:03:35;;;;;;;9.80;5.30;;;;;;;13.30;66.30;98481.78;5049505;28;20266;-75
2022/11/13 10:06:58;;;;;;;10.20;6.43;;;;;;;13.57;65.72;98474.78;5049750;28;20197;-75
2022/11/13 10:09:59;;;;;;;10.03;6.70;;;;;;;13.78;65.42;98471.44;5049493;28;20199;-74
2022/11/13 10:12:47;;;;;;;13.70;7.77;;;;;;;13.86;65.58;98472.00;5048842;28;20190;-75
2022/11/13 10:15:33;;;;;;;12.57;7.80;;;;;;;13.92;63.83;98477.00;5081205;28;20189;-75
2022/11/13 10:18:22;;;;;;;12.30;7.63;;;;;;;13.96;64.48;98470.78;5049415;28;20279;-74
2022/11/13 10:21:16;;;;;;;8.97;6.73;;;;;;;14.08;63.74;98466.84;5048514;28;20248;-75
2022/11/13 10:24:13;;;;;;;10.03;6.60;;;;;;;14.15;62.87;98470.94;5071678;28;20299;-75
2022/11/13 10:26:59;;;;;;;11.63;7.03;;;;;;;14.31;62.87;98449.50;5029279;28;20221;-74
2022/11/13 10:29:44;;;;;;;19.20;7.70;;;;;;;14.54;62.65;98449.47;5028755;28;20208;-75
2022/11/13 10:32:33;;;;;;;8.07;6.60;;;;;;;14.10;61.77;98454.63;5028898;28;20255;-75
2022/11/13 10:35:25;;;;;;;11.73;7.20;;;;;;;13.86;62.06;98453.78;5031004;28;20191;-75
2022/11/13 10:38:35;;;;;;;7.93;6.40;;;;;;;13.59;62.66;98437.41;5048536;28;20903;-75
2022/11/13 10:41:21;;;;;;;10.73;6.53;;;;;;;13.58;62.41;98437.47;5048236;28;20222;-75
2022/11/13 10:44:19;;;;;;;9.30;6.93;;;;;;;13.70;62.30;98440.44;5048663;28;20213;-75
2022/11/13 10:47:15;;;;;;;8.30;6.47;;;;;;;13.73;62.32;98437.75;5048144;28;20204;-75
2022/11/13 10:50:27;;;;;;;10.47;6.60;;;;;;;13.83;62.61;98431.31;5048709;28;20711;-75
2022/11/13 10:53:15;;;;;;;9.47;6.53;;;;;;;13.70;62.76;98421.41;5047696;28;20280;-74
2022/11/13 10:56:01;;;;;;;13.53;7.30;;;;;;;14.04;62.21;98419.25;5048197;28;20198;-74
2022/11/13 10:59:12;;;;;;;19.00;7.67;;;;;;;14.38;61.99;98414.50;5048480;28;20200;-74
2022/11/13 11:02:10;;;;;;;14.43;7.63;;;;;;;14.49;62.32;98407.09;5048738;28;20216;-75
2022/11/13 11:05:17;;;;;;;13.97;6.80;;;;;;;14.82;61.16;98396.22;5047021;28;20199;-75
2022/11/13 11:08:08;;;;;;;10.27;6.37;;;;;;;14.90;60.14;98384.53;5048474;28;20212;-74
2022/11/13 11:14:37;;;;;;;8.40;6.77;;;;;;;15.06;59.77;98388.22;5048407;28;20207;-75
2022/11/13 11:17:32;;;;;;;8.93;7.30;;;;;;;15.02;59.69;98388.41;5047475;28;20211;-72
2022/11/13 11:20:26;;;;;;;10.67;7.60;;;;;;;15.08;59.90;98385.56;5047443;28;20204;-76
2022/11/13 11:23:14;;;;;;;10.90;8.43;;;;;;;15.12;59.32;98380.16;5048335;28;20237;-75
2022/11/13 11:26:05;;;;;;;13.30;7.97;;;;;;;14.90;59.75;98368.88;5047734;28;20212;-78
2022/11/13 11:29:25;;;;;;;8.70;6.57;;;;;;;14.93;60.19;98367.91;5048095;28;20204;-74
2022/11/13 11:32:17;;;;;;;9.00;6.00;;;;;;;14.98;59.45;98371.19;5048143;28;20236;-75
2022/11/13 11:35:25;;;;;;;9.60;6.93;;;;;;;14.99;59.47;98363.31;5027711;28;20189;-74
2022/11/13 11:38:32;;;;;;;9.53;6.63;;;;;;;15.05;59.24;98359.56;5039521;28;20738;-75
2022/11/13 11:41:22;;;;;;;8.53;6.70;;;;;;;15.06;59.45;98353.47;5047531;28;20617;-74
2022/11/13 11:44:28;;;;;;;8.80;6.47;;;;;;;15.15;59.59;98347.81;5047198;28;20189;-75
2022/11/13 11:47:16;;;;;;;15.23;6.60;;;;;;;15.07;59.85;98339.47;5047430;28;20274;-76
2022/11/13 11:50:05;;;;;;;10.60;7.03;;;;;;;15.18;59.81;98338.13;5047639;28;20237;-75
2022/11/13 11:53:05;;;;;;;12.17;6.60;;;;;;;15.19;59.71;98346.78;5047345;28;20324;-75
2022/11/13 11:56:17;;;;;;;9.73;6.57;;;;;;;15.17;59.55;98338.16;5047044;28;20258;-76
2022/11/13 11:59:09;;;;;;;11.93;7.33;;;;;;;15.25;59.79;98338.72;5047330;28;20582;-75
2022/11/13 12:02:18;;;;;;;14.00;7.17;;;;;;;15.12;59.86;98329.72;5047540;28;20631;-75
2022/11/13 12:05:06;;;;;;;11.10;6.70;;;;;;;14.71;60.23;98328.88;5046603;28;20282;-74
2022/11/13 12:08:15;;;;;;;9.23;7.17;;;;;;;14.60;60.80;98329.31;5047324;28;20198;-74
2022/11/13 12:11:18;;;;;;;11.03;7.23;;;;;;;14.61;60.98;98325.78;5060247;28;20195;-75
2022/11/13 12:14:22;;;;;;;9.60;7.40;;;;;;;14.65;61.42;98319.50;5045318;28;20193;-74
2022/11/13 12:17:42;;;;;;;12.23;7.53;;;;;;;14.85;61.23;98312.63;5079092;28;20219;-74
2022/11/13 12:20:43;;;;;;;8.53;6.00;;;;;;;15.01;60.06;98313.66;5037908;28;20352;-74
2022/11/13 12:24:12;;;;;;;11.00;7.00;;;;;;;15.09;59.80;98314.19;5030544;28;20213;-75
2022/11/13 12:27:12;;;;;;;11.40;6.30;;;;;;;15.01;59.68;98309.28;5031668;28;20747;-75
2022/11/13 12:30:07;;;;;;;10.97;6.70;;;;;;;14.97;59.92;98304.28;5046842;28;20705;-75
2022/11/13 12:33:14;;;;;;;8.90;6.20;;;;;;;14.50;61.25;98290.63;5041738;28;20246;-75
2022/11/13 12:36:01;;;;;;;10.30;7.10;;;;;;;14.42;61.95;98309.22;5026660;28;20194;-74
2022/11/13 12:38:50;;;;;;;10.07;7.30;;;;;;;14.62;61.32;98283.16;5026554;28;20200;-75
2022/11/13 12:41:41;;;;;;;9.83;7.23;;;;;;;14.88;60.50;98302.06;5037972;28;20739;-75
2022/11/13 12:44:29;;;;;;;9.43;6.63;;;;;;;14.96;60.26;98297.38;5046452;28;20203;-75
2022/11/13 12:47:16;;;;;;;13.27;9.50;;;;;;;15.04;60.47;98300.50;5046231;28;20262;-75
2022/11/13 12:50:06;;;;;;;11.47;6.80;;;;;;;14.98;60.07;98290.34;5079179;28;20204;-75
2022/11/13 12:53:03;;;;;;;12.83;7.03;;;;;;;15.08;60.01;98295.09;5046343;28;20200;-75
2022/11/13 12:56:00;;;;;;;8.37;6.43;;;;;;;15.16;59.61;98289.53;5046412;28;20292;-75
2022/11/13 12:58:58;;;;;;;8.80;7.70;;;;;;;15.10;59.74;98292.41;5046673;28;20204;-76
2022/11/13 13:02:06;;;;;;;12.20;7.60;;;;;;;15.10;59.54;98289.78;5045581;28;20224;-75
2022/11/13 13:05:17;;;;;;;9.43;6.63;;;;;;;15.12;59.05;98285.34;5046021;28;20735;-75
2022/11/13 13:08:18;;;;;;;8.30;6.27;;;;;;;15.06;59.99;98286.47;5046359;28;20307;-74
2022/11/13 13:11:31;;;;;;;14.37;6.60;;;;;;;14.95;60.82;98290.44;5046321;28;20193;-75